Dunav 8 — YP2566 — position and weather

sailwx.info

Track history (hours):
 
Tides and Currents Weather Stations Pressure Air Temp Water Temp Dewpoint Dewpoint Depression Visibility Wind Speed Wind Dir Waves Ship Positions

Dunav 8

Last reported at 2018-Feb-20 16:13 UTC. Time now 2018-Feb-25 01:50 UTC.
Position N 44°16' E 028°06'.

Length 67 m.

MMSI: 264162566.

Date/timePositionNaut miles runAvg speedWind from/ knotsBaromVisibWave heightAir tempDewpointWater temp
2018-Feb-20 16:13N 44°16' E 028°06'1 3.3
2018-Feb-20 15:58N 44°16' E 028°07'2 3.4
2018-Feb-20 15:30N 44°16' E 028°09'2 3.5
2018-Feb-20 15:00N 44°16' E 028°11'2 3.5
2018-Feb-20 14:30N 44°15' E 028°14'2 3.4
2018-Feb-20 14:01N 44°15' E 028°16'2 3.5
2018-Feb-20 13:30N 44°15' E 028°19'2 3.3
2018-Feb-20 13:00N 44°15' E 028°21'2 3.3
2018-Feb-20 12:30N 44°14' E 028°22'1 2.8
2018-Feb-20 12:00N 44°12' E 028°23'2 3.1
2018-Feb-20 11:30N 44°11' E 028°24'0 0.4
2018-Feb-20 11:00N 44°11' E 028°24'0 0.0
2018-Feb-20 10:30N 44°11' E 028°24'0 0.0
2018-Feb-20 10:00N 44°11' E 028°24'0 0.0
2018-Feb-20 09:30N 44°11' E 028°24'0 0.0
2018-Feb-20 09:00N 44°11' E 028°24'0 0.0
2018-Feb-20 08:30N 44°11' E 028°24'0 0.0
2018-Feb-20 08:01N 44°11' E 028°24'0 0.1
2018-Feb-20 07:31N 44°11' E 028°24'0 0.1
2018-Feb-20 06:57N 44°11' E 028°24'0 0.0
2018-Feb-20 06:29N 44°11' E 028°24'0 0.0
2018-Feb-20 06:00N 44°11' E 028°24'0 0.0
2018-Feb-20 05:30N 44°11' E 028°24'0 0.0
2018-Feb-20 05:00N 44°11' E 028°24'0 0.0
2018-Feb-20 04:30N 44°11' E 028°24'0 0.0
2018-Feb-20 04:00N 44°11' E 028°24'0 0.0
2018-Feb-20 03:30N 44°11' E 028°24'0 0.0
2018-Feb-20 03:00N 44°11' E 028°24'0 0.0
2018-Feb-20 02:30N 44°11' E 028°24'0 0.0
2018-Feb-20 02:01N 44°11' E 028°24'0 0.0
2018-Feb-20 01:31N 44°11' E 028°24'0 0.0
2018-Feb-20 01:00N 44°11' E 028°24'0 0.0
2018-Feb-20 00:30N 44°11' E 028°24'0 0.0
2018-Feb-20 00:00N 44°11' E 028°24'0 0.0
2018-Feb-19 23:30N 44°11' E 028°24'0 0.0
2018-Feb-19 23:00N 44°11' E 028°24'0 0.0
2018-Feb-19 22:30N 44°11' E 028°24'0 0.0
2018-Feb-19 21:59N 44°11' E 028°24'0 0.0
2018-Feb-19 21:30N 44°11' E 028°24'0 0.0
2018-Feb-19 21:01N 44°11' E 028°24'0 0.0
2018-Feb-19 20:30N 44°11' E 028°24'0 0.0
2018-Feb-19 20:00N 44°11' E 028°24'0 0.0
2018-Feb-19 19:30N 44°11' E 028°24'0 0.0
2018-Feb-19 19:00N 44°11' E 028°24'0 0.0
2018-Feb-19 18:30N 44°11' E 028°24'0 0.0
2018-Feb-19 18:00N 44°11' E 028°24'0 0.0
2018-Feb-19 17:30N 44°11' E 028°24'0 0.0
2018-Feb-19 17:00N 44°11' E 028°24'0 0.0
2018-Feb-19 16:30N 44°11' E 028°24'0 0.0
2018-Feb-19 16:00N 44°11' E 028°24'0 0.1
2018-Feb-19 15:30N 44°11' E 028°24'1 2.4
2018-Feb-19 14:53N 44°12' E 028°23'1 2.7
2018-Feb-19 14:30N 44°13' E 028°23'1 2.8
2018-Feb-19 14:00N 44°14' E 028°22'1 2.8
2018-Feb-19 13:30N 44°15' E 028°20'1 2.7
2018-Feb-19 13:00N 44°15' E 028°18'1 2.6
2018-Feb-19 12:30N 44°15' E 028°17'1 2.8
2018-Feb-19 12:00N 44°15' E 028°15'1 2.7
2018-Feb-19 11:30N 44°16' E 028°13'2 2.8
2018-Feb-19 10:56N 44°16' E 028°11'1 2.6
2018-Feb-19 10:23N 44°16' E 028°09'1 2.6
2018-Feb-19 09:59N 44°16' E 028°07'1 2.7
2018-Feb-19 09:28N 44°16' E 028°05'2 2.6
2018-Feb-19 08:49N 44°18' E 028°04'  
2018-Feb-16 17:32N 44°17' E 028°05'0 3.4
2018-Feb-16 17:30N 44°16' E 028°05'2 3.4
2018-Feb-16 16:59N 44°16' E 028°08'2 3.4
2018-Feb-16 16:30N 44°16' E 028°10'2 3.5
2018-Feb-16 16:00N 44°16' E 028°12'2 3.5
2018-Feb-16 15:30N 44°15' E 028°15'2 3.4
2018-Feb-16 15:00N 44°15' E 028°17'2 3.4
2018-Feb-16 14:30N 44°15' E 028°19'2 3.3
2018-Feb-16 14:00N 44°14' E 028°22'2 3.4
2018-Feb-16 13:30N 44°13' E 028°23'2 3.4
2018-Feb-16 13:00N 44°11' E 028°24'1 1.7
2018-Feb-16 12:30N 44°11' E 028°24'0 0.0
2018-Feb-16 12:00N 44°11' E 028°24'0 0.0
2018-Feb-16 11:30N 44°11' E 028°24'0 0.0
2018-Feb-16 11:00N 44°11' E 028°24'0 0.0
2018-Feb-16 10:31N 44°11' E 028°24'0 0.0
2018-Feb-16 09:45N 44°11' E 028°24'0 0.0
2018-Feb-16 09:30N 44°11' E 028°24'0 0.0
2018-Feb-16 09:00N 44°11' E 028°24'0 0.0
2018-Feb-16 08:30N 44°11' E 028°24'0 0.0
2018-Feb-16 08:00N 44°11' E 028°24'0 0.0
2018-Feb-16 07:30N 44°11' E 028°24'0 0.0
2018-Feb-16 07:00N 44°11' E 028°24'0 0.0
2018-Feb-16 06:30N 44°11' E 028°24'0 0.0
2018-Feb-16 06:00N 44°11' E 028°24'0 0.0
2018-Feb-16 05:30N 44°11' E 028°24'0 0.0
2018-Feb-16 05:00N 44°11' E 028°24'0 0.0
2018-Feb-16 04:30N 44°11' E 028°24'0 0.0
2018-Feb-16 04:00N 44°11' E 028°24'0 0.0
2018-Feb-16 03:30N 44°11' E 028°24'0 0.0
2018-Feb-16 03:00N 44°11' E 028°24'0 0.0
2018-Feb-16 02:30N 44°11' E 028°24'0 0.0
2018-Feb-16 02:00N 44°11' E 028°24'0 0.0
2018-Feb-16 01:30N 44°11' E 028°24'0 0.0
2018-Feb-16 01:00N 44°11' E 028°24'0 0.0
2018-Feb-16 00:30N 44°11' E 028°24'0 0.0
2018-Feb-16 00:00N 44°11' E 028°24'0 0.0
2018-Feb-15 23:30N 44°11' E 028°24'0 0.0
2018-Feb-15 23:00N 44°11' E 028°24'0 0.0
2018-Feb-15 22:30N 44°11' E 028°24'0 0.0
2018-Feb-15 22:00N 44°11' E 028°24'0 0.0
2018-Feb-15 21:30N 44°11' E 028°24'0 0.0
2018-Feb-15 21:00N 44°11' E 028°24'0 0.0
2018-Feb-15 20:30N 44°11' E 028°24'0 0.0
2018-Feb-15 20:00N 44°11' E 028°24'0 0.0
2018-Feb-15 19:30N 44°11' E 028°24'0 0.0
2018-Feb-15 18:59N 44°11' E 028°24'0 0.0
2018-Feb-15 18:30N 44°11' E 028°24'0 0.0
2018-Feb-15 18:00N 44°11' E 028°24'0 0.0
2018-Feb-15 17:30N 44°11' E 028°24'0 0.0
2018-Feb-15 17:00N 44°11' E 028°24'0 0.0
2018-Feb-15 16:30N 44°11' E 028°24'0 0.0
2018-Feb-15 16:00N 44°11' E 028°24'0 0.0
2018-Feb-15 15:30N 44°11' E 028°24'1 1.4
2018-Feb-15 14:59N 44°11' E 028°24'1 2.2
2018-Feb-15 14:29N 44°12' E 028°23'1 2.7
2018-Feb-15 14:01N 44°14' E 028°23'1 2.7
2018-Feb-15 13:30N 44°15' E 028°21'1 2.7
2018-Feb-15 13:00N 44°15' E 028°20'1 2.8
2018-Feb-15 12:30N 44°15' E 028°18'1 2.7
2018-Feb-15 12:00N 44°15' E 028°16'1 2.7
2018-Feb-15 11:30N 44°15' E 028°14'1 2.7
2018-Feb-15 11:00N 44°16' E 028°12'3 2.7
2018-Feb-15 10:01N 44°16' E 028°08'0 2.6
2018-Feb-15 10:00N 44°16' E 028°08'2 2.8
2018-Feb-15 09:17N 44°16' E 028°06'  
2018-Feb-12 17:34N 44°16' E 028°06'0 3.4
2018-Feb-12 17:31N 44°16' E 028°06'2 3.3
2018-Feb-12 17:00N 44°16' E 028°08'2 3.4
2018-Feb-12 16:30N 44°16' E 028°10'2 3.4
2018-Feb-12 16:00N 44°16' E 028°13'2 3.3
2018-Feb-12 15:30N 44°15' E 028°15'2 3.4
2018-Feb-12 15:00N 44°15' E 028°17'2 3.4
2018-Feb-12 14:30N 44°15' E 028°20'2 3.3
2018-Feb-12 14:00N 44°14' E 028°22'2 3.4
2018-Feb-12 13:30N 44°13' E 028°23'2 3.3
2018-Feb-12 13:00N 44°11' E 028°24'1 1.3
2018-Feb-12 12:30N 44°11' E 028°24'0 0.0
2018-Feb-12 12:01N 44°11' E 028°24'0 0.0
2018-Feb-12 11:30N 44°11' E 028°24'0 0.0
2018-Feb-12 11:00N 44°11' E 028°24'0 0.0
2018-Feb-12 10:31N 44°11' E 028°24'0 0.0
2018-Feb-12 10:00N 44°11' E 028°24'0 0.0
2018-Feb-12 09:29N 44°11' E 028°24'0 0.0
2018-Feb-12 09:00N 44°11' E 028°24'0 0.1
2018-Feb-12 08:30N 44°11' E 028°24'0 0.0
2018-Feb-12 08:00N 44°11' E 028°24'0 0.0
2018-Feb-12 07:30N 44°11' E 028°24'0 0.0
2018-Feb-12 06:56N 44°11' E 028°24'0 0.1
2018-Feb-12 06:30N 44°11' E 028°24'0 0.0
2018-Feb-12 06:00N 44°11' E 028°24'0 0.0
2018-Feb-12 05:30N 44°11' E 028°24'0 0.0
2018-Feb-12 05:00N 44°11' E 028°24'0 0.0
2018-Feb-12 04:30N 44°11' E 028°24'0 0.0
2018-Feb-12 04:00N 44°11' E 028°24'0 0.0
2018-Feb-12 03:30N 44°11' E 028°24'0 0.0
2018-Feb-12 03:00N 44°11' E 028°24'0 0.0
2018-Feb-12 02:30N 44°11' E 028°24'0 0.0
2018-Feb-12 02:00N 44°11' E 028°24'0 0.0
2018-Feb-12 01:30N 44°11' E 028°24'0 0.0
2018-Feb-12 01:00N 44°11' E 028°24'0 0.0
2018-Feb-12 00:30N 44°11' E 028°24'0 0.0
2018-Feb-12 00:00N 44°11' E 028°24'0 0.0
2018-Feb-11 23:30N 44°11' E 028°24'0 0.0
2018-Feb-11 23:00N 44°11' E 028°24'0 0.0
2018-Feb-11 22:30N 44°11' E 028°24'0 0.0
2018-Feb-11 22:00N 44°11' E 028°24'0 0.0
2018-Feb-11 21:30N 44°11' E 028°24'0 0.0
2018-Feb-11 21:00N 44°11' E 028°24'0 0.0
2018-Feb-11 20:30N 44°11' E 028°24'0 0.0
2018-Feb-11 20:00N 44°11' E 028°24'0 0.0
2018-Feb-11 19:30N 44°11' E 028°24'0 0.0
2018-Feb-11 19:00N 44°11' E 028°24'0 0.0
2018-Feb-11 18:31N 44°11' E 028°24'0 0.0
2018-Feb-11 18:00N 44°11' E 028°24'0 0.0
2018-Feb-11 17:30N 44°11' E 028°24'0 0.0
2018-Feb-11 17:00N 44°11' E 028°24'0 0.0
2018-Feb-11 16:30N 44°11' E 028°24'0 0.0
2018-Feb-11 16:00N 44°11' E 028°24'0 0.0
2018-Feb-11 15:31N 44°11' E 028°24'0 0.0
2018-Feb-11 15:00N 44°11' E 028°24'0 0.0
2018-Feb-11 14:31N 44°11' E 028°24'0 0.9
2018-Feb-11 14:00N 44°11' E 028°24'1 2.7
2018-Feb-11 13:29N 44°12' E 028°23'1 2.8
2018-Feb-11 13:00N 44°14' E 028°22'1 2.9
2018-Feb-11 12:30N 44°15' E 028°21'1 2.7
2018-Feb-11 12:00N 44°15' E 028°19'1 2.7
2018-Feb-11 11:31N 44°15' E 028°17'1 2.7
2018-Feb-11 11:00N 44°15' E 028°15'1 2.7
2018-Feb-11 10:30N 44°15' E 028°14'1 2.8
2018-Feb-11 10:00N 44°16' E 028°12'1 2.7
2018-Feb-11 09:29N 44°16' E 028°10'1 2.8
2018-Feb-11 08:59N 44°16' E 028°08'  
Track history (hours):
 
Tides and Currents Weather Stations Pressure Air Temp Water Temp Dewpoint Dewpoint Depression Visibility Wind Speed Wind Dir Waves Ship Positions

Dunav 8

Last reported at 2018-Feb-20 16:13 UTC. Time now 2018-Feb-25 01:50 UTC.
Position N 44°16' E 028°06'.

Length 67 m.

MMSI: 264162566.

Date/timePositionNaut miles runAvg speedWind from/ knotsBaromVisibWave heightAir tempDewpointWater temp
2018-Feb-20 16:13N 44°16' E 028°06'1 3.3
2018-Feb-20 15:58N 44°16' E 028°07'2 3.4
2018-Feb-20 15:30N 44°16' E 028°09'2 3.5
2018-Feb-20 15:00N 44°16' E 028°11'2 3.5
2018-Feb-20 14:30N 44°15' E 028°14'2 3.4
2018-Feb-20 14:01N 44°15' E 028°16'2 3.5
2018-Feb-20 13:30N 44°15' E 028°19'2 3.3
2018-Feb-20 13:00N 44°15' E 028°21'2 3.3
2018-Feb-20 12:30N 44°14' E 028°22'1 2.8
2018-Feb-20 12:00N 44°12' E 028°23'2 3.1
2018-Feb-20 11:30N 44°11' E 028°24'0 0.4
2018-Feb-20 11:00N 44°11' E 028°24'0 0.0
2018-Feb-20 10:30N 44°11' E 028°24'0 0.0
2018-Feb-20 10:00N 44°11' E 028°24'0 0.0
2018-Feb-20 09:30N 44°11' E 028°24'0 0.0
2018-Feb-20 09:00N 44°11' E 028°24'0 0.0
2018-Feb-20 08:30N 44°11' E 028°24'0 0.0
2018-Feb-20 08:01N 44°11' E 028°24'0 0.1
2018-Feb-20 07:31N 44°11' E 028°24'0 0.1
2018-Feb-20 06:57N 44°11' E 028°24'0 0.0
2018-Feb-20 06:29N 44°11' E 028°24'0 0.0
2018-Feb-20 06:00N 44°11' E 028°24'0 0.0
2018-Feb-20 05:30N 44°11' E 028°24'0 0.0
2018-Feb-20 05:00N 44°11' E 028°24'0 0.0
2018-Feb-20 04:30N 44°11' E 028°24'0 0.0
2018-Feb-20 04:00N 44°11' E 028°24'0 0.0
2018-Feb-20 03:30N 44°11' E 028°24'0 0.0
2018-Feb-20 03:00N 44°11' E 028°24'0 0.0
2018-Feb-20 02:30N 44°11' E 028°24'0 0.0
2018-Feb-20 02:01N 44°11' E 028°24'0 0.0
2018-Feb-20 01:31N 44°11' E 028°24'0 0.0
2018-Feb-20 01:00N 44°11' E 028°24'0 0.0
2018-Feb-20 00:30N 44°11' E 028°24'0 0.0
2018-Feb-20 00:00N 44°11' E 028°24'0 0.0
2018-Feb-19 23:30N 44°11' E 028°24'0 0.0
2018-Feb-19 23:00N 44°11' E 028°24'0 0.0
2018-Feb-19 22:30N 44°11' E 028°24'0 0.0
2018-Feb-19 21:59N 44°11' E 028°24'0 0.0
2018-Feb-19 21:30N 44°11' E 028°24'0 0.0
2018-Feb-19 21:01N 44°11' E 028°24'0 0.0
2018-Feb-19 20:30N 44°11' E 028°24'0 0.0
2018-Feb-19 20:00N 44°11' E 028°24'0 0.0
2018-Feb-19 19:30N 44°11' E 028°24'0 0.0
2018-Feb-19 19:00N 44°11' E 028°24'0 0.0
2018-Feb-19 18:30N 44°11' E 028°24'0 0.0
2018-Feb-19 18:00N 44°11' E 028°24'0 0.0
2018-Feb-19 17:30N 44°11' E 028°24'0 0.0
2018-Feb-19 17:00N 44°11' E 028°24'0 0.0
2018-Feb-19 16:30N 44°11' E 028°24'0 0.0
2018-Feb-19 16:00N 44°11' E 028°24'0 0.1
2018-Feb-19 15:30N 44°11' E 028°24'1 2.4
2018-Feb-19 14:53N 44°12' E 028°23'1 2.7
2018-Feb-19 14:30N 44°13' E 028°23'1 2.8
2018-Feb-19 14:00N 44°14' E 028°22'1 2.8
2018-Feb-19 13:30N 44°15' E 028°20'1 2.7
2018-Feb-19 13:00N 44°15' E 028°18'1 2.6
2018-Feb-19 12:30N 44°15' E 028°17'1 2.8
2018-Feb-19 12:00N 44°15' E 028°15'1 2.7
2018-Feb-19 11:30N 44°16' E 028°13'2 2.8
2018-Feb-19 10:56N 44°16' E 028°11'1 2.6
2018-Feb-19 10:23N 44°16' E 028°09'1 2.6
2018-Feb-19 09:59N 44°16' E 028°07'1 2.7
2018-Feb-19 09:28N 44°16' E 028°05'2 2.6
2018-Feb-19 08:49N 44°18' E 028°04'  
2018-Feb-16 17:32N 44°17' E 028°05'0 3.4
2018-Feb-16 17:30N 44°16' E 028°05'2 3.4
2018-Feb-16 16:59N 44°16' E 028°08'2 3.4
2018-Feb-16 16:30N 44°16' E 028°10'2 3.5
2018-Feb-16 16:00N 44°16' E 028°12'2 3.5
2018-Feb-16 15:30N 44°15' E 028°15'2 3.4
2018-Feb-16 15:00N 44°15' E 028°17'2 3.4
2018-Feb-16 14:30N 44°15' E 028°19'2 3.3
2018-Feb-16 14:00N 44°14' E 028°22'2 3.4
2018-Feb-16 13:30N 44°13' E 028°23'2 3.4
2018-Feb-16 13:00N 44°11' E 028°24'1 1.7
2018-Feb-16 12:30N 44°11' E 028°24'0 0.0
2018-Feb-16 12:00N 44°11' E 028°24'0 0.0
2018-Feb-16 11:30N 44°11' E 028°24'0 0.0
2018-Feb-16 11:00N 44°11' E 028°24'0 0.0
2018-Feb-16 10:31N 44°11' E 028°24'0 0.0
2018-Feb-16 09:45N 44°11' E 028°24'0 0.0
2018-Feb-16 09:30N 44°11' E 028°24'0 0.0
2018-Feb-16 09:00N 44°11' E 028°24'0 0.0
2018-Feb-16 08:30N 44°11' E 028°24'0 0.0
2018-Feb-16 08:00N 44°11' E 028°24'0 0.0
2018-Feb-16 07:30N 44°11' E 028°24'0 0.0
2018-Feb-16 07:00N 44°11' E 028°24'0 0.0
2018-Feb-16 06:30N 44°11' E 028°24'0 0.0
2018-Feb-16 06:00N 44°11' E 028°24'0 0.0
2018-Feb-16 05:30N 44°11' E 028°24'0 0.0
2018-Feb-16 05:00N 44°11' E 028°24'0 0.0
2018-Feb-16 04:30N 44°11' E 028°24'0 0.0
2018-Feb-16 04:00N 44°11' E 028°24'0 0.0
2018-Feb-16 03:30N 44°11' E 028°24'0 0.0
2018-Feb-16 03:00N 44°11' E 028°24'0 0.0
2018-Feb-16 02:30N 44°11' E 028°24'0 0.0
2018-Feb-16 02:00N 44°11' E 028°24'0 0.0
2018-Feb-16 01:30N 44°11' E 028°24'0 0.0
2018-Feb-16 01:00N 44°11' E 028°24'0 0.0
2018-Feb-16 00:30N 44°11' E 028°24'0 0.0
2018-Feb-16 00:00N 44°11' E 028°24'0 0.0
2018-Feb-15 23:30N 44°11' E 028°24'0 0.0
2018-Feb-15 23:00N 44°11' E 028°24'0 0.0
2018-Feb-15 22:30N 44°11' E 028°24'0 0.0
2018-Feb-15 22:00N 44°11' E 028°24'0 0.0
2018-Feb-15 21:30N 44°11' E 028°24'0 0.0
2018-Feb-15 21:00N 44°11' E 028°24'0 0.0
2018-Feb-15 20:30N 44°11' E 028°24'0 0.0
2018-Feb-15 20:00N 44°11' E 028°24'0 0.0
2018-Feb-15 19:30N 44°11' E 028°24'0 0.0
2018-Feb-15 18:59N 44°11' E 028°24'0 0.0
2018-Feb-15 18:30N 44°11' E 028°24'0 0.0
2018-Feb-15 18:00N 44°11' E 028°24'0 0.0
2018-Feb-15 17:30N 44°11' E 028°24'0 0.0
2018-Feb-15 17:00N 44°11' E 028°24'0 0.0
2018-Feb-15 16:30N 44°11' E 028°24'0 0.0
2018-Feb-15 16:00N 44°11' E 028°24'0 0.0
2018-Feb-15 15:30N 44°11' E 028°24'1 1.4
2018-Feb-15 14:59N 44°11' E 028°24'1 2.2
2018-Feb-15 14:29N 44°12' E 028°23'1 2.7
2018-Feb-15 14:01N 44°14' E 028°23'1 2.7
2018-Feb-15 13:30N 44°15' E 028°21'1 2.7
2018-Feb-15 13:00N 44°15' E 028°20'1 2.8
2018-Feb-15 12:30N 44°15' E 028°18'1 2.7
2018-Feb-15 12:00N 44°15' E 028°16'1 2.7
2018-Feb-15 11:30N 44°15' E 028°14'1 2.7
2018-Feb-15 11:00N 44°16' E 028°12'3 2.7
2018-Feb-15 10:01N 44°16' E 028°08'0 2.6
2018-Feb-15 10:00N 44°16' E 028°08'2 2.8
2018-Feb-15 09:17N 44°16' E 028°06'  
2018-Feb-12 17:34N 44°16' E 028°06'0 3.4
2018-Feb-12 17:31N 44°16' E 028°06'2 3.3
2018-Feb-12 17:00N 44°16' E 028°08'2 3.4
2018-Feb-12 16:30N 44°16' E 028°10'2 3.4
2018-Feb-12 16:00N 44°16' E 028°13'2 3.3
2018-Feb-12 15:30N 44°15' E 028°15'2 3.4
2018-Feb-12 15:00N 44°15' E 028°17'2 3.4
2018-Feb-12 14:30N 44°15' E 028°20'2 3.3
2018-Feb-12 14:00N 44°14' E 028°22'2 3.4
2018-Feb-12 13:30N 44°13' E 028°23'2 3.3
2018-Feb-12 13:00N 44°11' E 028°24'1 1.3
2018-Feb-12 12:30N 44°11' E 028°24'0 0.0
2018-Feb-12 12:01N 44°11' E 028°24'0 0.0
2018-Feb-12 11:30N 44°11' E 028°24'0 0.0
2018-Feb-12 11:00N 44°11' E 028°24'0 0.0
2018-Feb-12 10:31N 44°11' E 028°24'0 0.0
2018-Feb-12 10:00N 44°11' E 028°24'0 0.0
2018-Feb-12 09:29N 44°11' E 028°24'0 0.0
2018-Feb-12 09:00N 44°11' E 028°24'0 0.1
2018-Feb-12 08:30N 44°11' E 028°24'0 0.0
2018-Feb-12 08:00N 44°11' E 028°24'0 0.0
2018-Feb-12 07:30N 44°11' E 028°24'0 0.0
2018-Feb-12 06:56N 44°11' E 028°24'0 0.1
2018-Feb-12 06:30N 44°11' E 028°24'0 0.0
2018-Feb-12 06:00N 44°11' E 028°24'0 0.0
2018-Feb-12 05:30N 44°11' E 028°24'0 0.0
2018-Feb-12 05:00N 44°11' E 028°24'0 0.0
2018-Feb-12 04:30N 44°11' E 028°24'0 0.0
2018-Feb-12 04:00N 44°11' E 028°24'0 0.0
2018-Feb-12 03:30N 44°11' E 028°24'0 0.0
2018-Feb-12 03:00N 44°11' E 028°24'0 0.0
2018-Feb-12 02:30N 44°11' E 028°24'0 0.0
2018-Feb-12 02:00N 44°11' E 028°24'0 0.0
2018-Feb-12 01:30N 44°11' E 028°24'0 0.0
2018-Feb-12 01:00N 44°11' E 028°24'0 0.0
2018-Feb-12 00:30N 44°11' E 028°24'0 0.0
2018-Feb-12 00:00N 44°11' E 028°24'0 0.0
2018-Feb-11 23:30N 44°11' E 028°24'0 0.0
2018-Feb-11 23:00N 44°11' E 028°24'0 0.0
2018-Feb-11 22:30N 44°11' E 028°24'0 0.0
2018-Feb-11 22:00N 44°11' E 028°24'0 0.0
2018-Feb-11 21:30N 44°11' E 028°24'0 0.0
2018-Feb-11 21:00N 44°11' E 028°24'0 0.0
2018-Feb-11 20:30N 44°11' E 028°24'0 0.0
2018-Feb-11 20:00N 44°11' E 028°24'0 0.0
2018-Feb-11 19:30N 44°11' E 028°24'0 0.0
2018-Feb-11 19:00N 44°11' E 028°24'0 0.0
2018-Feb-11 18:31N 44°11' E 028°24'0 0.0
2018-Feb-11 18:00N 44°11' E 028°24'0 0.0
2018-Feb-11 17:30N 44°11' E 028°24'0 0.0
2018-Feb-11 17:00N 44°11' E 028°24'0 0.0
2018-Feb-11 16:30N 44°11' E 028°24'0 0.0
2018-Feb-11 16:00N 44°11' E 028°24'0 0.0
2018-Feb-11 15:31N 44°11' E 028°24'0 0.0
2018-Feb-11 15:00N 44°11' E 028°24'0 0.0
2018-Feb-11 14:31N 44°11' E 028°24'0 0.9
2018-Feb-11 14:00N 44°11' E 028°24'1 2.7
2018-Feb-11 13:29N 44°12' E 028°23'1 2.8
2018-Feb-11 13:00N 44°14' E 028°22'1 2.9
2018-Feb-11 12:30N 44°15' E 028°21'1 2.7
2018-Feb-11 12:00N 44°15' E 028°19'1 2.7
2018-Feb-11 11:31N 44°15' E 028°17'1 2.7
2018-Feb-11 11:00N 44°15' E 028°15'1 2.7
2018-Feb-11 10:30N 44°15' E 028°14'1 2.8
2018-Feb-11 10:00N 44°16' E 028°12'1 2.7
2018-Feb-11 09:29N 44°16' E 028°10'1 2.8
2018-Feb-11 08:59N 44°16' E 028°08'  

Dump ship's entire track history